createdAt,value
2023-03-08T00:03:57.685Z,-7.63
2023-03-08T00:09:01.730Z,-8.21
2023-03-08T00:14:04.068Z,-7.72
2023-03-08T00:19:06.219Z,-8.44
2023-03-08T00:24:08.678Z,-8.38
2023-03-08T00:29:11.141Z,-8.53
2023-03-08T00:34:13.413Z,-9.64
2023-03-08T00:39:16.744Z,-7.93
2023-03-08T00:44:18.956Z,-11.31
2023-03-08T00:49:22.906Z,-7.99
2023-03-08T00:54:26.473Z,-8.63
2023-03-08T00:59:29.052Z,-8.00
2023-03-08T01:04:34.099Z,-10.88
2023-03-08T01:09:36.478Z,-8.31
2023-03-08T01:14:38.732Z,-8.87
2023-03-08T01:19:42.516Z,-12.25
2023-03-08T01:24:48.725Z,-12.21
2023-03-08T01:29:53.999Z,-8.09
2023-03-08T01:34:56.591Z,-8.15
2023-03-08T01:39:58.975Z,-13.95
2023-03-08T01:45:04.056Z,-12.25
2023-03-08T01:50:11.126Z,-9.56
2023-03-08T01:55:15.370Z,-9.96
2023-03-08T02:00:23.595Z,-8.10
2023-03-08T02:05:28.045Z,-8.32
2023-03-08T02:10:36.717Z,-8.04
2023-03-08T02:15:59.497Z,-9.08
2023-03-08T02:21:03.293Z,-8.43
2023-03-08T02:26:06.174Z,-8.20
2023-03-08T02:31:08.572Z,-9.60
2023-03-08T02:36:12.687Z,-9.85
2023-03-08T02:41:14.960Z,-9.01
2023-03-08T02:46:19.063Z,-8.13
2023-03-08T02:51:21.307Z,-8.32
2023-03-08T02:56:23.555Z,-8.31
2023-03-08T03:01:26.322Z,-9.04
2023-03-08T03:06:28.688Z,-8.10
2023-03-08T03:11:32.304Z,-8.11
2023-03-08T03:16:34.912Z,-9.02
2023-03-08T03:21:39.389Z,-8.13
2023-03-08T03:26:41.699Z,-8.11
2023-03-08T03:31:44.477Z,-9.20
2023-03-08T03:36:47.523Z,-8.44
2023-03-08T03:41:49.892Z,-8.99
2023-03-08T03:46:52.317Z,-10.01
2023-03-08T03:51:59.705Z,-9.04
2023-03-08T03:57:09.710Z,-8.14
2023-03-08T04:02:15.067Z,-8.17
2023-03-08T04:07:28.977Z,-8.64
2023-03-08T04:12:33.885Z,-8.35
2023-03-08T04:17:36.366Z,-8.42
2023-03-08T04:22:38.815Z,-8.51
2023-03-08T04:27:48.809Z,-8.73
2023-03-08T04:32:51.349Z,-12.64
2023-03-08T04:37:54.949Z,-9.35
2023-03-08T04:43:00.452Z,-9.87
2023-03-08T04:48:11.808Z,-10.57
2023-03-08T04:53:14.151Z,-8.61
2023-03-08T04:58:18.326Z,-11.14
2023-03-08T05:03:21.193Z,-9.13
2023-03-08T05:08:45.334Z,-7.96
2023-03-08T05:13:48.030Z,-10.29
2023-03-08T05:18:50.474Z,-12.56
2023-03-08T05:23:55.832Z,-8.93
2023-03-08T05:29:07.210Z,-9.07
2023-03-08T05:34:11.629Z,-8.89
2023-03-08T05:39:18.043Z,-9.56
2023-03-08T05:44:36.494Z,-9.03
2023-03-08T05:49:58.738Z,-8.76
2023-03-08T05:55:06.122Z,-8.31
2023-03-08T06:00:09.631Z,-9.64
2023-03-08T06:05:18.206Z,-9.22
2023-03-08T06:10:43.392Z,-8.16
2023-03-08T06:15:46.110Z,-8.54
2023-03-08T06:21:02.253Z,-7.74
2023-03-08T06:26:08.289Z,-8.38
2023-03-08T06:31:16.601Z,-7.63
2023-03-08T06:36:21.102Z,-8.15
2023-03-08T06:41:24.945Z,-7.83
2023-03-08T06:46:30.868Z,-10.04
2023-03-08T06:51:33.327Z,-8.53
2023-03-08T06:56:35.585Z,-8.52
2023-03-08T07:01:37.996Z,-7.33
2023-03-08T07:06:40.339Z,-6.93
2023-03-08T07:11:42.681Z,-10.62
2023-03-08T07:16:44.857Z,-6.86
2023-03-08T07:21:47.103Z,-10.34
2023-03-08T07:26:50.728Z,-6.66
2023-03-08T07:31:55.921Z,-7.05
2023-03-08T07:36:58.155Z,-6.87
2023-03-08T07:42:00.348Z,-5.66
2023-03-08T07:47:02.658Z,-6.46
2023-03-08T07:52:05.175Z,-5.69
2023-03-08T07:57:07.423Z,-5.34
2023-03-08T08:02:13.221Z,-8.07
2023-03-08T08:07:16.456Z,-8.41
2023-03-08T08:12:18.874Z,-7.43
2023-03-08T08:17:21.639Z,-4.70
2023-03-08T08:22:23.912Z,-7.25
2023-03-08T08:27:26.107Z,-5.43
2023-03-08T08:32:28.477Z,-6.49
2023-03-08T08:37:32.540Z,-6.08
2023-03-08T08:42:34.761Z,-5.17
2023-03-08T08:47:37.074Z,-4.94
2023-03-08T08:52:39.427Z,-9.34
2023-03-08T08:57:41.626Z,-4.75
2023-03-08T09:02:44.020Z,-6.42
2023-03-08T09:07:46.332Z,-5.59
2023-03-08T09:12:49.683Z,-4.15
2023-03-08T09:17:52.324Z,-4.09
2023-03-08T09:22:54.679Z,-4.79
2023-03-08T09:27:57.278Z,-4.76
2023-03-08T09:33:00.050Z,-5.80
2023-03-08T09:38:02.443Z,-6.36
2023-03-08T09:43:05.988Z,-4.20
2023-03-08T09:48:34.790Z,-3.72
2023-03-08T09:53:48.536Z,-3.98
2023-03-08T09:58:55.010Z,-3.40
2023-03-08T10:04:03.361Z,-3.73
2023-03-08T10:09:28.336Z,-3.23
2023-03-08T10:14:33.795Z,-3.14
2023-03-08T10:20:09.536Z,-6.91
2023-03-08T10:25:38.453Z,-7.45
2023-03-08T10:30:45.561Z,-3.27
2023-03-08T10:36:06.488Z,-2.52
2023-03-08T10:41:18.328Z,-2.56
2023-03-08T10:46:25.865Z,-2.90
2023-03-08T10:51:31.656Z,-4.09
2023-03-08T10:56:52.260Z,-2.23
2023-03-08T11:01:57.480Z,-2.19
2023-03-08T11:07:10.799Z,-4.00
2023-03-08T11:12:23.529Z,-4.81
2023-03-08T11:17:35.752Z,-4.70
2023-03-08T11:22:50.156Z,-2.09
2023-03-08T11:28:08.479Z,-3.93
2023-03-08T11:33:51.107Z,-2.00
2023-03-08T11:39:05.267Z,-2.95
2023-03-08T11:44:19.563Z,-1.92
2023-03-08T11:49:31.670Z,-1.89
2023-03-08T11:54:40.059Z,-3.50
2023-03-08T11:59:45.390Z,-1.82
2023-03-08T12:05:08.271Z,-1.82
2023-03-08T12:10:55.009Z,-1.74
2023-03-08T12:16:19.065Z,-1.79
2023-03-08T12:21:34.809Z,-1.75
2023-03-08T12:26:41.740Z,-2.10
2023-03-08T12:31:48.637Z,-3.16
2023-03-08T12:36:53.947Z,-4.60
2023-03-08T12:42:14.632Z,-1.81
2023-03-08T12:47:21.352Z,-2.03
2023-03-08T12:52:33.563Z,-1.83
2023-03-08T12:57:43.208Z,-5.05
2023-03-08T13:02:45.451Z,-1.73
2023-03-08T13:08:07.015Z,-3.16
2023-03-08T13:13:20.550Z,-1.83
2023-03-08T13:18:33.274Z,-1.84
2023-03-08T13:23:39.846Z,-1.88
2023-03-08T13:28:47.782Z,-1.89
2023-03-08T13:33:55.436Z,-1.86
2023-03-08T13:39:23.095Z,-1.85
2023-03-08T13:44:27.024Z,-2.92
2023-03-08T13:49:34.118Z,-1.90
2023-03-08T13:54:39.967Z,-1.91
2023-03-08T13:59:49.059Z,-3.51
2023-03-08T14:04:51.909Z,-4.68
2023-03-08T14:09:54.636Z,-2.43
2023-03-08T14:15:05.283Z,-2.12
2023-03-08T14:20:21.677Z,-2.36
2023-03-08T14:25:33.538Z,-3.07
2023-03-08T14:30:47.155Z,-2.38
2023-03-08T14:35:55.860Z,-1.95
2023-03-08T14:41:04.035Z,-1.95
2023-03-08T14:46:09.431Z,-4.70
2023-03-08T14:51:17.792Z,-1.92
2023-03-08T14:56:19.994Z,-2.28
2023-03-08T15:01:34.412Z,-3.33
2023-03-08T15:06:39.069Z,-4.74
2023-03-08T15:11:41.442Z,-2.10
2023-03-08T15:16:43.806Z,-1.92
2023-03-08T15:21:47.590Z,-2.22
2023-03-08T15:26:49.884Z,-1.96
2023-03-08T15:31:52.449Z,-4.21
2023-03-08T15:36:55.197Z,-2.06
2023-03-08T15:41:57.543Z,-2.42
2023-03-08T15:47:01.835Z,-4.48
2023-03-08T15:52:04.390Z,-2.91
2023-03-08T15:57:07.101Z,-4.67
2023-03-08T16:02:20.249Z,-1.82
2023-03-08T16:07:22.879Z,-1.82
2023-03-08T16:12:25.073Z,-2.15
2023-03-08T16:17:29.906Z,-2.14
2023-03-08T16:22:33.670Z,-1.78
2023-03-08T16:27:38.275Z,-3.00
2023-03-08T16:32:40.843Z,-2.98
2023-03-08T16:37:43.036Z,-2.31
2023-03-08T16:42:45.304Z,-2.97
2023-03-08T16:47:47.579Z,-1.74
2023-03-08T16:52:54.127Z,-3.55
2023-03-08T16:57:56.441Z,-5.54
2023-03-08T17:02:58.624Z,-4.84
2023-03-08T17:08:00.770Z,-2.06
2023-03-08T17:13:03.120Z,-2.77
2023-03-08T17:18:05.651Z,-1.59
2023-03-08T17:23:09.778Z,-1.57
2023-03-08T17:28:12.159Z,-3.51
2023-03-08T17:33:40.021Z,-4.75
2023-03-08T17:38:48.967Z,-1.44
2023-03-08T17:43:51.391Z,-1.45
2023-03-08T17:48:54.765Z,-1.56
2023-03-08T17:54:01.371Z,-2.35
2023-03-08T17:59:03.647Z,-2.67
2023-03-08T18:04:06.027Z,-1.85
2023-03-08T18:09:10.813Z,-1.57
2023-03-08T18:14:14.615Z,-1.71
2023-03-08T18:19:16.998Z,-1.21
2023-03-08T18:24:19.143Z,-1.57
2023-03-08T18:29:21.332Z,-1.48
2023-03-08T18:34:30.048Z,-2.04
2023-03-08T18:39:32.383Z,-1.10
2023-03-08T18:44:34.923Z,-2.40
2023-03-08T18:49:37.550Z,-2.53
2023-03-08T18:54:41.441Z,-1.54
2023-03-08T18:59:43.742Z,-1.87
2023-03-08T19:04:46.047Z,-0.98
2023-03-08T19:09:48.291Z,-2.60
2023-03-08T19:14:52.632Z,-1.25
2023-03-08T19:19:55.060Z,-2.12
2023-03-08T19:24:57.328Z,-1.89
2023-03-08T19:29:59.629Z,-4.75
2023-03-08T19:35:03.228Z,-0.88
2023-03-08T19:40:09.619Z,-0.86
2023-03-08T19:45:12.538Z,-0.83
2023-03-08T19:50:16.169Z,-0.84
2023-03-08T19:55:18.489Z,-1.63
2023-03-08T20:00:21.097Z,-1.05
2023-03-08T20:05:23.536Z,-1.70
2023-03-08T20:10:26.049Z,-1.37
2023-03-08T20:15:28.405Z,-1.77
2023-03-08T20:20:30.918Z,-1.60
2023-03-08T20:25:36.146Z,-2.02
2023-03-08T20:30:39.170Z,-2.26
2023-03-08T20:35:41.712Z,-1.90
2023-03-08T20:40:43.936Z,-1.47
2023-03-08T20:45:46.405Z,-2.39
2023-03-08T20:50:48.941Z,-2.35
2023-03-08T20:55:51.084Z,-1.66
2023-03-08T21:00:53.361Z,-2.00
2023-03-08T21:05:55.525Z,-1.91
2023-03-08T21:10:58.912Z,-1.80
2023-03-08T21:16:06.140Z,-1.83
2023-03-08T21:21:08.288Z,-2.37
2023-03-08T21:26:11.067Z,-1.91
2023-03-08T21:31:14.485Z,-1.94
2023-03-08T21:36:17.296Z,-1.96
2023-03-08T21:41:21.564Z,-2.10
2023-03-08T21:46:24.454Z,-2.01
2023-03-08T21:51:26.659Z,-2.38
2023-03-08T21:56:28.940Z,-2.53
2023-03-08T22:01:31.867Z,-2.42
2023-03-08T22:06:34.112Z,-2.15
2023-03-08T22:11:36.366Z,-2.20
2023-03-08T22:16:40.244Z,-2.66
2023-03-08T22:21:42.582Z,-2.49
2023-03-08T22:26:44.739Z,-2.73
2023-03-08T22:31:46.846Z,-2.70
2023-03-08T22:36:49.384Z,-2.71
2023-03-08T22:41:51.546Z,-2.89
2023-03-08T22:46:53.704Z,-2.47
2023-03-08T22:51:56.133Z,-2.37
2023-03-08T22:56:58.371Z,-2.75
2023-03-08T23:02:00.548Z,-2.43
2023-03-08T23:07:02.733Z,-2.53
2023-03-08T23:12:06.381Z,-3.05
2023-03-08T23:17:08.485Z,-2.44
2023-03-08T23:22:12.094Z,-2.45
2023-03-08T23:27:14.283Z,-2.45
2023-03-08T23:32:16.398Z,-2.47
2023-03-08T23:37:18.448Z,-2.69
2023-03-08T23:42:20.548Z,-2.52
2023-03-08T23:47:22.669Z,-2.93
2023-03-08T23:52:24.904Z,-2.57
2023-03-08T23:57:27.056Z,-3.10
